Humidity-temperature Sensor

Selected Measurement Type: Air Temperature

 
Air Temperature [°C]     6 entries per hour
Showing data from 6/2/2022 (00:00:00 Z) to 6/1/2022 (00:01:00 Z)
Previous Next [ Day | 3-Days | 7-Days ]
First Last
Prev [ Day | 3-Days | 7-Days ] Next
First Last

Start Time:     :
End Time:     :     
Time (in GMT) :00 :50 :40 :30 :20 :10
Previous Next [ Day | 3-Days | 7-Days ]
First Last
Prev [ Day | 3-Days | 7-Days ] Next
First Last


123 => good data
MM => data is determined as missing
-- => data not received/configured
Back to Top Back to Top
6/2/2022 00:00 to 23:10 26.36 26.40 26.56 26.33 26.31 26.10
6/1/2022 23:00 to 22:10 26.17 26.24 26.20 25.94 26.07 26.49
6/1/2022 22:00 to 21:10 26.32 26.20 26.49 26.16 25.96 26.24
6/1/2022 21:00 to 20:10 26.76 26.64 26.57 26.63 26.79 26.77
6/1/2022 20:00 to 19:10 26.63 26.60 26.67 26.48 26.66 26.44
6/1/2022 19:00 to 18:10 26.73 26.58 26.50 26.45 26.52 26.46
6/1/2022 18:00 to 17:10 26.49 26.30 26.22 26.34 26.14 25.75
6/1/2022 17:00 to 16:10 25.69 25.53 25.34 24.91 24.92 24.91
6/1/2022 16:00 to 15:10 24.76 24.14 24.31 23.77 23.80 24.12
6/1/2022 15:00 to 14:10 24.21 24.15 24.14 23.97 24.02 24.02
6/1/2022 14:00 to 13:10 23.99 24.01 23.56 23.80 23.59 23.64
6/1/2022 13:00 to 12:10 23.81 23.73 24.01 23.83 23.91 23.68
6/1/2022 12:00 to 11:10 24.01 24.12 24.13 23.97 24.02 23.88
6/1/2022 11:00 to 10:10 23.78 24.08 23.76 23.73 23.89 24.00
6/1/2022 10:00 to 9:10 23.83 24.04 24.08 23.93 23.67 24.20
6/1/2022 09:00 to 8:10 23.98 23.87 24.09 23.98 23.99 24.20
6/1/2022 08:00 to 7:10 23.80 23.69 23.99 24.03 23.89 24.14
6/1/2022 07:00 to 6:10 24.00 24.09 24.40 24.13 24.34 24.34
6/1/2022 06:00 to 5:10 24.22 24.12 24.11 24.47 24.80 24.80
6/1/2022 05:00 to 4:10 24.36 24.38 24.36 24.53 24.57 24.78
6/1/2022 04:00 to 3:10 24.39 24.07 24.39 24.62 24.54 24.55
6/1/2022 03:00 to 2:10 24.38 24.37 24.52 24.46 24.47 24.53
6/1/2022 02:00 to 1:10 24.79 24.73 24.56 24.69 24.48 24.62
6/1/2022 01:00 to 0:10 24.66 24.30 24.53 24.52 24.31 24.23